Latest Coastal Weather Observations for Red Rocks Point

IDW60701

Issued at 1:02 am WST Thursday 2 July 2015 (issued every 10 minutes, with the page automatically refreshed every 10 minutes)

About coastal observations | Map of coastal stations | Coastal observations for WA | Marine services | Other Formats
Station Details ID: 011053 Name: RED ROCKS POINT Lat: -32.20 Lon: 127.53 Height: 3.1 m
Data from the previous 72 hours. | See also: Recent months for locations in Western Australia
Date/Time
WST
Temp

°C
Wind Pressure Rain
since 9am
mm
Weather Cloud Vis
km
Sea
Height
m
Swell
Dir
 
Speed
knots
Gust
knots
hPa Trend Height
m
Period
s
Dir
02/01:00am 9.4 N 8 9 1028.4 - 0.0 - - - - - - -
02/12:30am 10.1 N 7 8 1028.5 - 0.0 - - - - - - -
02/12:00am 10.3 N 8 9 1028.6 - 0.0 - - - - - - -
 
Date/Time
WST
Temp

°C
Wind Pressure Rain
since 9am
mm
Weather Cloud Vis
km
Sea
Height
m
Swell
Dir
 
Speed
knots
Gust
knots
hPa Trend Height
m
Period
s
Dir
01/11:30pm 10.9 N 9 11 1028.6 - 0.0 - - - - - - -
01/11:00pm 11.0 NNE 9 11 1028.7 - 0.0 - - - - - - -
01/10:30pm 11.2 N 8 10 1028.7 - 0.0 - - - - - - -
01/10:00pm 11.4 N 8 11 1028.7 - 0.0 - - - - - - -
01/09:30pm 11.6 N 8 9 1028.6 - 0.0 - - - - - - -
01/09:00pm 11.7 N 8 10 1028.7 - 0.0 - - - - - - -
01/08:30pm 12.0 NNE 7 9 1028.7 - 0.0 - - - - - - -
01/08:00pm 11.7 NNE 7 9 1028.5 - 0.0 - - - - - - -
01/07:30pm 12.0 NE 7 8 1028.5 - 0.0 - - - - - - -
01/07:00pm 12.6 NE 6 7 1028.6 - 0.0 - - - - - - -
01/06:30pm 13.3 E 6 7 1028.5 - 0.0 - - - - - - -
01/06:00pm 14.5 E 7 8 1028.0 - 0.0 - - - - - - -
01/05:30pm 13.1 CALM 0 1 1027.8 - 0.0 - - - - - - -
01/05:00pm 13.1 ENE 3 6 1027.6 - 0.0 - - - - - - -
01/04:30pm 14.4 SE 1 5 1027.5 - 0.0 - - - - - - -
01/04:00pm 15.9 ESE 6 7 1027.1 - 0.0 - - - - - - -
01/03:30pm 16.9 SE 6 7 1026.9 - 0.0 - - - - - - -
01/03:00pm 17.5 SSE 6 7 1027.0 - 0.0 - - - - - - -
01/02:30pm 17.9 SSE 8 9 1026.7 - 0.0 - - - - - - -
01/02:00pm 18.1 SSE 5 6 1026.6 - 0.0 - - - - - - -
01/01:30pm 19.7 N 3 6 1026.6 - 0.0 - - - - - - -
01/01:00pm 19.6 NW 6 9 1026.9 - 0.0 - - - - - - -
01/12:30pm 20.0 NNW 8 11 1027.1 - 0.0 - - - - - - -
01/12:00pm 18.5 NW 10 13 1027.6 - 0.0 - - - - - - -
01/11:30am 17.3 NNW 10 14 1028.1 - 0.0 - - - - - - -
01/11:00am 15.1 NNW 8 11 1028.6 - 0.0 - - - - - - -
01/10:30am 14.1 N 9 12 1029.0 - 0.0 - - - - - - -
01/10:00am 12.7 NNW 8 11 1029.0 - 0.0 - - - - - - -
01/09:30am 11.6 NNW 8 11 1029.2 - 0.0 - - - - - - -
01/09:00am 10.4 N 9 13 1029.1 - 0.2 - - - - - - -
01/08:30am 9.5 N 8 11 1029.2 - 0.2 - - - - - - -
01/08:00am 8.8 N 9 13 1029.2 - 0.2 - - - - - - -
01/07:30am 8.3 N 9 11 1029.2 - 0.2 - - - - - - -
01/07:00am 8.1 N 10 12 1029.0 - 0.2 - - - - - - -
01/06:30am 7.8 N 9 12 1029.1 - 0.2 - - - - - - -
01/06:00am 7.5 N 9 12 1028.4 - 0.2 - - - - - - -
01/05:30am 7.4 N 9 12 1028.3 - 0.2 - - - - - - -
01/05:00am 7.3 N 9 13 1028.0 - 0.2 - - - - - - -
01/04:30am 7.6 N 10 12 1028.2 - 0.2 - - - - - - -
01/04:00am 7.7 N 10 14 1028.2 - 0.2 - - - - - - -
01/03:30am 7.8 N 10 13 1028.4 - 0.2 - - - - - - -
01/03:00am 7.5 N 10 13 1028.4 - 0.2 - - - - - - -
01/02:30am 7.6 N 10 12 1028.3 - 0.2 - - - - - - -
01/02:00am 7.5 N 9 13 1028.1 - 0.2 - - - - - - -
01/01:30am 8.3 N 11 14 1028.2 - 0.2 - - - - - - -
01/01:00am 8.1 N 10 14 1028.3 - 0.2 - - - - - - -
01/12:30am 8.1 N 8 10 1028.8 - 0.2 - - - - - - -
01/12:00am 8.1 NNE 6 10 1028.5 - 0.2 - - - - - - -
 
Date/Time
WST
Temp

°C
Wind Pressure Rain
since 9am
mm
Weather Cloud Vis
km
Sea
Height
m
Swell
Dir
 
Speed
knots
Gust
knots
hPa Trend Height
m
Period
s
Dir
30/11:30pm 7.0 NE 4 5 1028.5 - 0.2 - - - - - - -
30/11:00pm 7.3 NE 4 5 1028.7 - 0.2 - - - - - - -
30/10:30pm 8.1 NE 4 5 1028.9 - 0.2 - - - - - - -
30/10:00pm 9.5 NNE 6 8 1029.0 - 0.2 - - - - - - -
30/09:30pm 10.2 N 8 11 1029.1 - 0.2 - - - - - - -
30/09:00pm 10.9 NNE 9 12 1028.9 - 0.2 - - - - - - -
30/08:30pm 11.3 NNE 9 13 1028.6 - 0.2 - - - - - - -
30/08:00pm 11.8 NE 8 11 1028.4 - 0.2 - - - - - - -
30/07:30pm 12.0 NE 8 10 1028.4 - 0.2 - - - - - - -
30/07:00pm 12.4 NE 8 9 1028.5 - 0.2 - - - - - - -
30/06:30pm 14.1 NE 8 13 1028.4 - 0.2 - - - - - - -
30/06:00pm 15.0 E 11 12 1028.4 - 0.2 - - - - - - -
30/05:30pm 14.8 E 9 11 1028.6 - 0.2 - - - - - - -
30/05:00pm 15.0 E 11 13 1028.1 - 0.2 - - - - - - -
30/04:30pm 15.1 E 12 13 1027.7 - 0.2 - - - - - - -
30/04:00pm 15.3 E 11 13 1027.6 - 0.2 - - - - - - -
30/03:30pm 15.8 E 10 12 1027.7 - 0.2 - - - - - - -
30/03:00pm 16.1 E 11 13 1027.6 - 0.2 - - - - - - -
30/02:30pm 16.2 ESE 10 11 1027.5 - 0.2 - - - - - - -
30/02:00pm 16.6 ESE 10 11 1027.7 - 0.2 - - - - - - -
30/01:30pm 16.7 ESE 10 11 1027.7 - 0.2 - - - - - - -
30/01:00pm 16.7 ESE 10 11 1027.9 - 0.2 - - - - - - -
30/12:30pm 17.5 ESE 6 8 1028.4 - 0.2 - - - - - - -
30/12:00pm 19.1 W 6 11 1028.9 - 0.0 - - - - - - -
30/11:30am 18.6 N 7 11 1029.5 - 0.0 - - - - - - -
30/11:00am 17.8 N 6 9 1030.1 - 0.0 - - - - - - -
30/10:30am 16.7 N 8 10 1030.5 - 0.0 - - - - - - -
30/10:00am 15.2 N 9 13 1030.7 - 0.0 - - - - - - -
30/09:30am 13.5 N 9 13 1030.8 - 0.0 - - - - - - -
30/09:00am 11.6 N 9 13 1031.0 - 0.0 - - - - - - -
30/08:30am 9.5 N 10 14 1030.8 - 0.0 - - - - - - -
30/08:00am 7.8 N 10 13 1030.4 - 0.0 - - - - - - -
30/07:30am 6.1 N 10 13 1030.2 - 0.0 - - - - - - -
30/07:00am 5.0 N 11 14 1030.2 - 0.0 - - - - - - -
30/06:30am 4.8 N 10 13 1030.0 - 0.0 - - - - - - -
30/06:00am 5.6 N 11 13 1029.7 - 0.0 - - - - - - -
30/05:30am 6.3 N 10 12 1029.3 - 0.0 - - - - - - -
30/05:00am 6.0 N 10 12 1029.2 - 0.0 - - - - - - -
30/04:30am 5.8 N 11 13 1029.4 - 0.0 - - - - - - -
30/04:00am 6.0 N 10 13 1029.0 - 0.0 - - - - - - -
30/03:30am 5.1 CALM 0 0 1028.9 - 0.0 - - - - - - -
30/03:00am 5.7 N 1 5 1029.1 - 0.0 - - - - - - -
30/02:30am 5.2 N 4 5 1029.0 - 0.0 - - - - - - -
30/02:00am 7.2 CALM 0 3 1028.9 - 0.0 - - - - - - -
30/01:30am 7.4 N 6 9 1028.8 - 0.0 - - - - - - -
30/01:00am 8.4 N 9 12 1028.6 - 0.0 - - - - - - -
30/12:30am 8.8 N 10 13 1028.4 - 0.0 - - - - - - -
30/12:00am 8.9 N 10 14 1028.6 - 0.0 - - - - - - -
 
Date/Time
WST
Temp

°C
Wind Pressure Rain
since 9am
mm
Weather Cloud Vis
km
Sea
Height
m
Swell
Dir
 
Speed
knots
Gust
knots
hPa Trend Height
m
Period
s
Dir
29/11:30pm 9.4 NNE 8 11 1028.8 - 0.0 - - - - - - -
29/11:00pm 9.3 NNE 7 9 1029.3 - 0.0 - - - - - - -
29/10:30pm 8.8 NNE 6 7 1029.7 - 0.0 - - - - - - -
29/10:00pm 9.2 NNE 6 7 1029.8 - 0.0 - - - - - - -
29/09:30pm 9.5 NNE 6 7 1029.8 - 0.0 - - - - - - -
29/09:00pm 10.1 NNE 6 7 1030.1 - 0.0 - - - - - - -
29/08:30pm 11.1 NNE 5 7 1030.0 - 0.0 - - - - - - -
29/08:00pm 13.2 NE 7 10 1030.0 - 0.0 - - - - - - -
29/07:30pm 14.7 E 11 13 1029.9 - 0.0 - - - - - - -
29/07:00pm 14.8 E 11 14 1029.6 - 0.0 - - - - - - -
29/06:30pm 15.0 E 11 13 1029.5 - 0.0 - - - - - - -
29/06:00pm 15.1 E 11 14 1029.4 - 0.0 - - - - - - -
29/05:30pm 15.1 E 10 11 1029.1 - 0.0 - - - - - - -
29/05:00pm 15.0 E 9 11 1028.9 - 0.0 - - - - - - -
29/04:30pm 15.0 E 10 11 1028.9 - 0.0 - - - - - - -
29/04:00pm 15.3 ESE 10 11 1028.9 - 0.0 - - - - - - -
29/03:30pm 15.5 ESE 11 12 1028.9 - 0.0 - - - - - - -
29/03:00pm 15.8 ESE 11 13 1028.8 - 0.0 - - - - - - -
29/02:30pm 16.0 ESE 11 13 1028.7 - 0.0 - - - - - - -
29/02:00pm 16.0 SE 10 11 1029.1 - 0.0 - - - - - - -
29/01:30pm 16.3 SE 11 12 1029.1 - 0.0 - - - - - - -
29/01:00pm 16.3 SE 10 11 1029.4 - 0.0 - - - - - - -
29/12:30pm 16.5 SE 9 10 1029.7 - 0.0 - - - - - - -
29/12:00pm 16.6 SE 9 10 1029.8 - 0.0 - - - - - - -
29/11:30am 16.9 E 7 8 1030.3 - 0.0 - - - - - - -
29/11:00am 17.0 ENE 8 11 1030.8 - 0.0 - - - - - - -
29/10:30am 16.8 NNE 8 12 1031.4 - 0.0 - - - - - - -
29/10:00am 15.7 NE 10 14 1031.8 - 0.0 - - - - - - -
29/09:30am 14.2 NNE 7 10 1031.8 - 0.0 - - - - - - -
29/09:00am 11.9 N 9 13 1032.0 - 0.0 - - - - - - -
29/08:30am 10.2 N 8 11 1031.7 - 0.0 - - - - - - -
29/07:30am 7.0 N 9 11 1031.6 - 0.0 - - - - - - -
29/07:00am 5.9 N 8 9 1031.5 - 0.0 - - - - - - -
29/06:30am 5.9 N 9 11 1031.2 - 0.0 - - - - - - -
29/06:00am 5.7 N 9 10 1031.1 - 0.0 - - - - - - -
29/05:30am 6.4 N 9 11 1030.8 - 0.0 - - - - - - -
29/05:00am 6.3 N 9 11 1030.9 - 0.0 - - - - - - -
29/04:30am 6.8 N 9 11 1030.9 - 0.0 - - - - - - -
29/04:00am 7.1 N 9 12 1030.8 - 0.0 - - - - - - -
29/03:30am 7.1 N 9 11 1031.0 - 0.0 - - - - - - -
29/03:00am 6.8 N 9 10 1031.2 - 0.0 - - - - - - -
29/02:30am 7.1 NNW 10 11 1031.4 - 0.0 - - - - - - -
29/02:00am 7.3 NNW 10 11 1031.6 - 0.0 - - - - - - -
29/01:30am 7.0 NNW 10 11 1031.4 - 0.0 - - - - - - -

Other Formats:

Comma delimited format used in spreadsheet applications
http://www.bom.gov.au/fwo/IDW60701/IDW60701.94644.axf

JavaScript Object Notation format (JSON) in row-major order
http://www.bom.gov.au/fwo/IDW60701/IDW60701.94644.json